Time;durP1;ratioP1;P1;durP2;ratioP2;P2;SDS_P1;SDS_P2;PMS_P1;PMS_P2;Temp;Humidity;BMP_temperature;BMP_pressure;BME280_temperature;BME280_humidity;BME280_pressure;Samples;Min_cycle;Max_cycle;Signal;HPM_P1;HPM_P2
2023/02/04 00:00:15;;;;;;;;;3.50;3.00;;;;;2.43;100.00;97618.88;4952910;28;103694;-70
2023/02/04 00:02:42;;;;;;;;;5.75;5.50;;;;;2.44;100.00;97625.88;4953179;28;101989;-70
2023/02/04 00:05:11;;;;;;;;;10.00;7.50;;;;;2.48;100.00;97629.88;4955004;28;101897;-70
2023/02/04 00:07:38;;;;;;;;;3.00;3.00;;;;;2.50;100.00;97625.19;4957598;28;102491;-70
2023/02/04 00:10:08;;;;;;;;;5.50;5.00;;;;;2.53;100.00;97611.50;4955644;28;108965;-70
2023/02/04 00:12:35;;;;;;;;;6.50;4.50;;;;;2.55;100.00;97625.50;4960584;28;102202;-70
2023/02/04 00:15:03;;;;;;;;;8.50;5.50;;;;;2.45;100.00;97618.72;4957237;28;101967;-70
2023/02/04 00:17:30;;;;;;;;;2.75;1.25;;;;;2.53;100.00;97624.84;4955673;28;102493;-71
2023/02/04 00:19:57;;;;;;;;;5.25;3.00;;;;;2.52;100.00;97614.38;4955853;28;104047;-69
2023/02/04 00:22:27;;;;;;;;;5.00;5.00;;;;;2.53;100.00;97616.84;4958166;28;102402;-69
2023/02/04 00:24:54;;;;;;;;;5.00;5.00;;;;;2.48;100.00;97619.19;4954886;28;102018;-70
2023/02/04 00:27:21;;;;;;;;;2.75;2.25;;;;;2.47;100.00;97612.22;4968209;28;102276;-70
2023/02/04 00:29:48;;;;;;;;;3.50;3.50;;;;;2.51;100.00;97623.38;4957553;28;103510;-70
2023/02/04 00:32:15;;;;;;;;;2.75;2.75;;;;;2.52;100.00;97620.50;4966997;28;102152;-71
2023/02/04 00:34:42;;;;;;;;;3.50;2.75;;;;;2.47;100.00;97624.72;4970124;28;102056;-70
2023/02/04 00:37:09;;;;;;;;;3.50;2.50;;;;;2.53;100.00;97621.34;4956739;28;102368;-70
2023/02/04 00:39:36;;;;;;;;;5.00;3.00;;;;;2.42;100.00;97606.56;4958965;28;104103;-70
2023/02/04 00:42:04;;;;;;;;;5.50;4.50;;;;;2.43;100.00;97615.41;4952924;28;102685;-69
2023/02/04 00:44:31;;;;;;;;;5.00;2.25;;;;;2.47;100.00;97612.22;4954987;28;102211;-70
2023/02/04 00:46:59;;;;;;;;;6.50;6.00;;;;;2.41;100.00;97602.25;4946565;28;102813;-70
2023/02/04 00:49:25;;;;;;;;;6.75;5.25;;;;;2.50;100.00;97601.19;4955629;28;104263;-71
2023/02/04 00:51:52;;;;;;;;;3.00;3.00;;;;;2.54;100.00;97607.84;4959259;28;102178;-70
2023/02/04 00:54:19;;;;;;;;;3.00;3.00;;;;;2.43;100.00;97608.22;4952432;28;102143;-71
2023/02/04 00:56:47;;;;;;;;;5.00;4.50;;;;;2.48;100.00;97605.84;4967735;28;102705;-70
2023/02/04 00:59:14;;;;;;;;;6.25;5.00;;;;;2.47;100.00;97601.56;4954399;28;104843;-68
2023/02/04 01:01:41;;;;;;;;;3.00;3.00;;;;;2.43;100.00;97594.88;4960639;28;101994;-69
2023/02/04 01:04:08;;;;;;;;;4.00;3.00;;;;;2.51;100.00;97602.84;4959329;28;102006;-71
2023/02/04 01:06:35;;;;;;;;;5.00;5.00;;;;;2.54;100.00;97607.00;4967685;28;102020;-68
2023/02/04 01:09:03;;;;;;;;;1.25;1.00;;;;;2.54;100.00;97589.16;4958648;28;103350;-69
2023/02/04 01:11:30;;;;;;;;;5.00;4.50;;;;;2.53;100.00;97590.16;4960972;28;102341;-70
2023/02/04 01:13:58;;;;;;;;;3.00;3.00;;;;;2.53;100.00;97579.50;4960013;28;102369;-70
2023/02/04 01:16:25;;;;;;;;;2.50;2.50;;;;;2.57;100.00;97591.47;4970911;28;102251;-70
2023/02/04 01:18:54;;;;;;;;;3.00;2.00;;;;;2.57;100.00;97583.47;4957243;28;104038;-69
2023/02/04 01:21:22;;;;;;;;;2.00;1.50;;;;;2.49;100.00;97562.16;4958384;28;102508;-69
2023/02/04 01:23:49;;;;;;;;;1.75;1.00;;;;;2.51;100.00;97576.19;4955713;28;101960;-70
2023/02/04 01:26:19;;;;;;;;;2.50;2.00;;;;;2.56;100.00;97573.81;4955908;28;102274;-70
2023/02/04 01:28:46;;;;;;;;;2.75;2.25;;;;;2.58;100.00;97577.13;4953187;28;104027;-71
2023/02/04 01:31:13;;;;;;;;;6.50;2.00;;;;;2.52;100.00;97567.16;4955513;28;102283;-71
2023/02/04 01:33:41;;;;;;;;;5.00;2.75;;;;;2.49;100.00;97578.19;4952649;28;101946;-71
2023/02/04 01:36:08;;;;;;;;;4.50;2.50;;;;;2.59;100.00;97577.97;4957367;28;103099;-71
2023/02/04 01:38:35;;;;;;;;;5.00;3.00;;;;;2.44;100.00;97585.03;4955824;28;108308;-70
2023/02/04 01:41:03;;;;;;;;;3.50;3.50;;;;;2.42;100.00;97598.56;4954190;28;103234;-70
2023/02/04 01:43:32;;;;;;;;;5.50;5.00;;;;;2.36;100.00;97619.75;4954829;28;101909;-72
2023/02/04 01:46:01;;;;;;;;;3.00;3.00;;;;;2.26;100.00;97603.97;4956075;28;104190;-69
2023/02/04 01:48:29;;;;;;;;;2.75;2.75;;;;;2.18;100.00;97620.00;4952607;28;103476;-70
2023/02/04 01:51:05;;;;;;;;;4.50;3.00;;;;;2.12;100.00;97634.84;4957961;28;102286;-70
2023/02/04 01:53:34;;;;;;;;;5.25;3.00;;;;;2.03;100.00;97635.03;4949083;28;102025;-71
2023/02/04 01:56:19;;;;;;;;;3.00;3.00;;;;;1.84;100.00;97614.13;4953993;28;102227;-71
2023/02/04 01:58:46;;;;;;;;;2.50;2.00;;;;;1.84;100.00;97646.94;4952795;28;108733;-70
2023/02/04 02:01:42;;;;;;;;;1.00;1.00;;;;;1.71;100.00;97634.13;4956550;28;102369;-70
2023/02/04 02:04:12;;;;;;;;;2.00;2.00;;;;;1.72;100.00;97635.78;4947621;28;102406;-71
2023/02/04 02:06:46;;;;;;;;;1.50;1.00;;;;;1.64;100.00;97642.97;4953914;28;104524;-70
2023/02/04 02:09:27;;;;;;;;;2.00;2.00;;;;;1.68;100.00;97642.47;4952920;28;109261;-70
2023/02/04 02:12:12;;;;;;;;;3.00;2.00;;;;;1.70;100.00;97648.47;4952553;28;103275;-70
2023/02/04 02:14:55;;;;;;;;;2.00;1.75;;;;;1.65;100.00;97648.13;4951600;28;102179;-70
2023/02/04 02:17:40;;;;;;;;;2.75;2.75;;;;;1.62;100.00;97642.31;4949466;28;102279;-69
2023/02/04 02:20:23;;;;;;;;;3.00;2.00;;;;;1.58;100.00;97649.78;4951224;28;107482;-70
2023/02/04 02:23:15;;;;;;;;;4.00;1.25;;;;;1.58;100.00;97662.28;4952744;28;102306;-70
2023/02/04 02:25:52;;;;;;;;;2.00;2.00;;;;;1.50;100.00;97660.47;4951254;28;102229;-72
2023/02/04 02:28:21;;;;;;;;;3.00;2.75;;;;;1.48;100.00;97662.47;4950680;28;102377;-70
2023/02/04 02:30:49;;;;;;;;;1.25;1.25;;;;;1.53;100.00;97667.31;4950967;28;104019;-70
2023/02/04 02:33:19;;;;;;;;;2.50;1.00;;;;;1.44;100.00;97660.31;4952611;28;102171;-69
2023/02/04 02:35:47;;;;;;;;;1.00;0.00;;;;;1.30;100.00;97669.78;4951436;28;102145;-69
2023/02/04 02:38:16;;;;;;;;;2.00;2.00;;;;;1.19;100.00;97678.94;4953081;28;102162;-69
2023/02/04 02:40:44;;;;;;;;;2.00;2.00;;;;;1.19;100.00;97670.09;4951400;28;104154;-70
2023/02/04 02:43:16;;;;;;;;;2.00;1.00;;;;;1.06;100.00;97685.72;4953064;28;102327;-70
2023/02/04 02:45:44;;;;;;;;;2.00;1.00;;;;;1.00;100.00;97686.38;4952639;28;102081;-71
2023/02/04 02:48:12;;;;;;;;;4.00;1.75;;;;;0.90;100.00;97690.00;4953887;28;102431;-71
2023/02/04 02:50:41;;;;;;;;;2.00;1.25;;;;;0.82;100.00;97679.34;4953396;28;103989;-71
2023/02/04 02:53:15;;;;;;;;;2.00;1.00;;;;;0.87;100.00;97695.66;4956950;28;102290;-70
2023/02/04 02:55:43;;;;;;;;;6.50;2.00;;;;;0.74;100.00;97690.00;4964001;28;101940;-71
2023/02/04 02:58:31;;;;;;;;;2.00;2.00;;;;;0.53;100.00;97665.66;4957083;28;104140;-73
2023/02/04 03:01:04;;;;;;;;;3.50;2.00;;;;;0.65;100.00;97700.75;4953358;28;104027;-69
2023/02/04 03:03:34;;;;;;;;;3.50;2.00;;;;;0.54;100.00;97706.38;4955129;28;101975;-70
2023/02/04 03:06:14;;;;;;;;;1.25;1.25;;;;;0.51;100.00;97699.53;4954423;28;102025;-70
2023/02/04 03:08:43;;;;;;;;;2.00;2.00;;;;;0.46;100.00;97699.19;4955793;28;102074;-70
2023/02/04 03:11:10;;;;;;;;;6.50;2.00;;;;;0.46;100.00;97723.13;4956599;28;103996;-71
2023/02/04 03:13:38;;;;;;;;;5.00;4.00;;;;;0.39;100.00;97719.44;4958195;28;102430;-69
2023/02/04 03:16:07;;;;;;;;;3.00;2.00;;;;;0.35;100.00;97731.38;4959158;28;102042;-69
2023/02/04 03:18:35;;;;;;;;;4.00;2.00;;;;;0.34;100.00;97729.72;4960462;28;102225;-70
2023/02/04 03:21:04;;;;;;;;;3.00;1.25;;;;;0.33;100.00;97741.34;4956139;28;104202;-70
2023/02/04 03:23:35;;;;;;;;;3.75;2.50;;;;;0.23;100.00;97743.25;4954604;28;102085;-70
2023/02/04 03:26:03;;;;;;;;;4.00;4.00;;;;;0.15;100.00;97745.88;4948986;28;102317;-70
2023/02/04 03:28:31;;;;;;;;;4.00;2.00;;;;;0.22;100.00;97758.41;4963526;28;102081;-70
2023/02/04 03:30:59;;;;;;;;;3.50;2.00;;;;;0.13;100.00;97762.00;4955373;28;104017;-70
2023/02/04 03:33:30;;;;;;;;;1.75;1.75;;;;;0.07;100.00;97775.91;4949731;28;102406;-71
2023/02/04 03:35:58;;;;;;;;;3.50;2.00;;;;;-0.10;100.00;97761.69;4950033;28;102004;-71
2023/02/04 03:38:25;;;;;;;;;2.50;2.00;;;;;-0.10;100.00;97767.00;4949411;28;102026;-71
2023/02/04 03:40:52;;;;;;;;;6.25;4.00;;;;;-0.08;100.00;97772.97;4954646;28;104017;-70
2023/02/04 03:43:19;;;;;;;;;5.75;5.00;;;;;-0.09;100.00;97763.31;4953253;28;102013;-71
2023/02/04 03:45:46;;;;;;;;;6.00;4.75;;;;;-0.03;100.00;97789.28;4954274;28;101810;-71
2023/02/04 03:48:13;;;;;;;;;5.00;4.00;;;;;-0.06;100.00;97794.91;4955327;28;101945;-71
2023/02/04 03:50:40;;;;;;;;;4.00;3.50;;;;;-0.05;100.00;97793.94;4955763;28;104032;-70
2023/02/04 03:53:08;;;;;;;;;5.33;5.33;;;;;-0.14;100.00;97800.19;4952002;28;102752;-70
2023/02/04 03:55:35;;;;;;;;;5.00;2.00;;;;;-0.12;100.00;97800.84;4953104;28;102216;-70
2023/02/04 03:58:04;;;;;;;;;4.00;4.00;;;;;-0.05;100.00;97831.13;4954217;28;102130;-71
2023/02/04 04:00:31;;;;;;;;;1.00;1.00;;;;;-0.06;100.00;97841.91;4953581;28;104256;-69
2023/02/04 04:02:59;;;;;;;;;3.00;2.00;;;;;-0.11;100.00;97863.63;4951154;28;101939;-70
2023/02/04 04:05:27;;;;;;;;;1.00;1.00;;;;;-0.11;100.00;97892.84;4958762;28;102431;-70
2023/02/04 04:07:54;;;;;;;;;1.75;0.00;;;;;-0.26;100.00;97870.44;4956791;28;103073;-71
2023/02/04 04:10:22;;;;;;;;;4.00;2.00;;;;;-0.22;100.00;97897.53;4955157;28;104050;-70
2023/02/04 04:12:48;;;;;;;;;4.67;4.33;;;;;-0.36;100.00;97901.53;4955366;28;101982;-70
2023/02/04 04:15:16;;;;;;;;;4.67;2.00;;;;;-0.37;100.00;97941.53;4953843;28;102018;-70
2023/02/04 04:17:43;;;;;;;;;8.00;5.25;;;;;-0.34;100.00;97955.34;4955896;28;102000;-70
2023/02/04 04:20:10;;;;;;;;;8.00;6.00;;;;;-0.55;100.00;97950.31;4958139;28;104288;-70
2023/02/04 04:22:38;;;;;;;;;12.00;11.00;;;;;-0.54;100.00;97977.69;4950800;28;102179;-71
2023/02/04 04:25:06;;;;;;;;;10.33;8.00;;;;;-0.57;100.00;98004.53;4956875;28;101957;-71
2023/02/04 04:27:33;;;;;;;;;12.00;9.00;;;;;-0.63;100.00;98018.41;4958863;28;102332;-71
2023/02/04 04:30:00;;;;;;;;;8.33;6.67;;;;;-0.70;100.00;98030.56;4952120;28;103998;-71
2023/02/04 04:32:27;;;;;;;;;11.33;9.00;;;;;-0.80;100.00;98057.13;4957371;28;102556;-71
2023/02/04 04:34:54;;;;;;;;;12.00;8.00;;;;;-0.87;99.33;98081.72;4956101;28;101879;-70
2023/02/04 04:37:22;;;;;;;;;11.00;8.67;;;;;-0.98;99.74;98075.59;4954907;28;101935;-71
2023/02/04 04:39:48;;;;;;;;;13.67;12.00;;;;;-1.03;99.74;98104.34;4952858;28;104200;-72
2023/02/04 04:42:15;;;;;;;;;12.00;8.33;;;;;-1.14;100.00;98116.94;4956006;28;103900;-70
2023/02/04 04:44:42;;;;;;;;;15.67;9.67;;;;;-1.13;100.00;98145.16;4955177;28;102674;-72
2023/02/04 04:47:09;;;;;;;;;8.00;8.00;;;;;-1.38;100.00;98122.66;4959348;28;102264;-70
2023/02/04 04:49:36;;;;;;;;;9.33;9.33;;;;;-1.31;100.00;98178.63;4953328;28;104267;-70
2023/02/04 04:52:04;;;;;;;;;10.33;10.33;;;;;-1.38;100.00;98171.22;4950505;28;102191;-70
2023/02/04 04:54:31;;;;;;;;;15.67;11.00;;;;;-1.39;100.00;98189.91;4951769;28;102309;-71
2023/02/04 04:56:58;;;;;;;;;8.00;8.00;;;;;-1.53;100.00;98195.63;4956576;28;102152;-71
2023/02/04 04:59:25;;;;;;;;;12.00;11.33;;;;;-1.61;100.00;98214.81;4952000;28;104191;-70
2023/02/04 05:01:52;;;;;;;;;7.00;6.33;;;;;-1.58;100.00;98227.00;4949407;28;102548;-72
2023/02/04 05:04:19;;;;;;;;;8.00;7.00;;;;;-1.72;100.00;98214.09;4953140;28;102249;-71
2023/02/04 05:06:46;;;;;;;;;11.00;8.67;;;;;-1.61;100.00;98243.13;4956125;28;102291;-70
2023/02/04 05:09:15;;;;;;;;;8.33;7.33;;;;;-1.65;100.00;98260.28;4955798;28;103975;-72
2023/02/04 05:11:42;;;;;;;;;11.67;9.00;;;;;-1.59;100.00;98292.41;4956501;28;102343;-71
2023/02/04 05:14:09;;;;;;;;;8.67;8.00;;;;;-1.61;100.00;98302.28;4955483;28;102138;-71
2023/02/04 05:16:36;;;;;;;;;7.67;7.00;;;;;-1.61;100.00;98314.72;4955400;28;102298;-71
2023/02/04 05:19:03;;;;;;;;;11.00;9.00;;;;;-1.62;100.00;98313.06;4952370;28;104060;-71
2023/02/04 05:21:30;;;;;;;;;4.33;1.00;;;;;-1.78;100.00;98307.38;4953536;28;102073;-70
2023/02/04 05:23:57;;;;;;;;;10.00;8.00;;;;;-1.58;100.00;98343.63;4955635;28;102045;-71
2023/02/04 05:26:26;;;;;;;;;7.00;7.00;;;;;-1.67;100.00;98347.06;4953816;28;102039;-71
2023/02/04 05:28:56;;;;;;;;;8.00;7.00;;;;;-1.66;100.00;98375.22;4953946;28;104210;-69
2023/02/04 05:31:23;;;;;;;;;7.67;5.67;;;;;-1.63;100.00;98396.19;4953996;28;102456;-70
2023/02/04 05:33:50;;;;;;;;;6.33;6.33;;;;;-1.67;100.00;98408.03;4953035;28;102139;-71
2023/02/04 05:36:17;;;;;;;;;5.00;5.00;;;;;-1.72;99.56;98421.66;4954843;28;102327;-70
2023/02/04 05:38:44;;;;;;;;;10.00;5.67;;;;;-1.78;98.43;98434.56;4953255;28;103961;-71
2023/02/04 05:41:12;;;;;;;;;2.00;2.00;;;;;-1.72;100.00;98463.22;4958190;28;102149;-70
2023/02/04 05:43:39;;;;;;;;;6.33;4.67;;;;;-1.82;97.87;98479.88;4954820;28;103455;-69
2023/02/04 05:46:06;;;;;;;;;5.00;4.67;;;;;-1.82;98.91;98487.81;4954471;28;102162;-69
2023/02/04 05:48:33;;;;;;;;;8.67;8.00;;;;;-1.81;95.80;98505.41;4952616;28;103934;-70
2023/02/04 05:51:00;;;;;;;;;8.00;6.33;;;;;-1.77;97.74;98531.66;4955774;28;102264;-70
2023/02/04 05:53:27;;;;;;;;;7.67;5.00;;;;;-1.76;96.92;98550.09;4953941;28;102144;-69
2023/02/04 05:55:54;;;;;;;;;8.00;7.67;;;;;-1.78;98.82;98567.91;4955949;28;102673;-69
2023/02/04 05:58:21;;;;;;;;;7.33;7.00;;;;;-1.94;99.62;98570.13;4953456;28;104151;-68
2023/02/04 06:00:48;;;;;;;;;14.00;11.00;;;;;-1.92;99.80;98607.91;4952752;28;102452;-69
2023/02/04 06:03:15;;;;;;;;;7.67;5.00;;;;;-2.16;98.66;98578.94;4950840;28;102359;-69
2023/02/04 06:05:43;;;;;;;;;10.00;7.33;;;;;-1.87;99.39;98632.25;4955989;28;102709;-70
2023/02/04 06:08:10;;;;;;;;;4.33;4.33;;;;;-1.82;96.57;98657.41;4952919;28;109701;-70
2023/02/04 06:10:37;;;;;;;;;8.00;4.33;;;;;-1.80;94.56;98652.81;4952450;28;102234;-71
2023/02/04 06:13:04;;;;;;;;;5.00;5.00;;;;;-1.77;94.25;98661.50;4950434;28;103245;-68
2023/02/04 06:15:30;;;;;;;;;4.00;4.00;;;;;-1.77;93.16;98693.31;4952160;28;102351;-69
2023/02/04 06:17:57;;;;;;;;;7.67;7.00;;;;;-1.76;95.20;98710.91;4952401;28;104201;-70
2023/02/04 06:20:25;;;;;;;;;4.67;4.00;;;;;-1.77;94.13;98704.75;4957107;28;102318;-68
2023/02/04 06:22:53;;;;;;;;;5.00;4.67;;;;;-1.81;93.62;98728.00;4953947;28;101942;-69
2023/02/04 06:25:21;;;;;;;;;7.00;7.00;;;;;-1.75;92.35;98741.72;4955527;28;102491;-69
2023/02/04 06:27:48;;;;;;;;;8.00;8.00;;;;;-1.75;95.10;98757.63;4953966;28;104094;-69
2023/02/04 06:30:15;;;;;;;;;8.67;7.33;;;;;-1.78;94.29;98764.00;4954032;28;102023;-69
2023/02/04 06:32:43;;;;;;;;;7.00;7.00;;;;;-1.72;93.14;98778.59;4955085;28;101972;-68
2023/02/04 06:35:11;;;;;;;;;10.67;8.00;;;;;-1.73;92.69;98798.09;4955455;28;102326;-68
2023/02/04 06:37:39;;;;;;;;;7.33;7.33;;;;;-1.79;92.25;98804.72;4947528;28;111119;-68
2023/02/04 06:40:07;;;;;;;;;8.00;7.67;;;;;-1.72;92.82;98815.72;4957684;28;102132;-69
2023/02/04 06:42:34;;;;;;;;;13.33;10.33;;;;;-1.74;91.93;98831.72;4954204;28;102203;-69
2023/02/04 06:45:02;;;;;;;;;9.67;7.67;;;;;-1.74;92.40;98846.78;4959145;28;102110;-69
2023/02/04 06:47:29;;;;;;;;;11.00;10.00;;;;;-1.71;90.87;98849.22;4955078;28;104598;-69
2023/02/04 06:49:56;;;;;;;;;7.33;6.33;;;;;-1.76;91.42;98861.97;4955431;28;102632;-67
2023/02/04 06:52:23;;;;;;;;;11.33;9.33;;;;;-1.66;93.74;98877.03;4954259;28;102733;-68
2023/02/04 06:54:50;;;;;;;;;13.00;8.67;;;;;-1.75;91.79;98884.84;4966201;28;101944;-69
2023/02/04 06:57:17;;;;;;;;;10.33;8.67;;;;;-1.76;92.74;98899.91;4953879;28;104042;-69
2023/02/04 06:59:45;;;;;;;;;14.00;9.00;;;;;-1.82;93.29;98910.97;4956256;28;103750;-70
2023/02/04 07:02:12;;;;;;;;;5.67;5.67;;;;;-1.76;92.51;98931.72;4957783;28;102455;-68
2023/02/04 07:04:42;;;;;;;;;15.00;11.00;;;;;-2.12;90.54;98885.00;4955857;28;102014;-68
2023/02/04 07:07:10;;;;;;;;;11.33;10.00;;;;;-1.82;89.57;98956.88;4951960;28;108729;-68
2023/02/04 07:09:39;;;;;;;;;5.67;4.00;;;;;-1.85;89.75;98949.13;4951214;28;102509;-68
2023/02/04 07:12:06;;;;;;;;;13.00;8.00;;;;;-1.81;89.91;98981.56;4963395;28;102421;-69
2023/02/04 07:14:33;;;;;;;;;10.00;10.00;;;;;-1.82;89.31;98980.72;4958919;28;102242;-68
2023/02/04 07:17:00;;;;;;;;;13.00;13.00;;;;;-1.84;90.66;98987.94;4955858;28;103990;-68
2023/02/04 07:19:27;;;;;;;;;14.00;10.00;;;;;-1.86;90.94;99003.13;4958202;28;102285;-68
2023/02/04 07:21:55;;;;;;;;;13.00;11.00;;;;;-1.99;89.92;98994.38;4957750;28;102652;-68
2023/02/04 07:24:23;;;;;;;;;14.00;11.67;;;;;-1.86;91.80;99032.25;4956276;28;102404;-68
2023/02/04 07:26:50;;;;;;;;;16.33;13.67;;;;;-1.85;89.90;99028.63;4956754;28;104070;-70
2023/02/04 07:29:18;;;;;;;;;15.00;11.00;;;;;-1.88;89.28;99042.13;4956697;28;102454;-69
2023/02/04 07:31:51;;;;;;;;;14.33;13.00;;;;;-1.84;88.10;99050.69;4956391;28;102270;-69
2023/02/04 07:34:19;;;;;;;;;12.67;11.67;;;;;-1.89;90.60;99056.31;4958475;28;102503;-68
2023/02/04 07:36:46;;;;;;;;;20.33;11.67;;;;;-1.77;91.40;99074.94;4952625;28;104000;-69
2023/02/04 07:39:14;;;;;;;;;16.33;13.33;;;;;-1.79;90.37;99090.94;4955218;28;102208;-68
2023/02/04 07:41:41;;;;;;;;;13.00;11.00;;;;;-1.80;88.45;99091.91;4954103;28;101952;-68
2023/02/04 07:44:08;;;;;;;;;13.33;12.33;;;;;-1.82;89.31;99084.09;4956023;28;102144;-68
2023/02/04 07:46:35;;;;;;;;;15.67;12.67;;;;;-1.76;88.70;99101.34;4956799;28;104502;-69
2023/02/04 07:49:02;;;;;;;;;14.00;13.00;;;;;-1.78;88.97;99108.56;4956450;28;102320;-68
2023/02/04 07:51:29;;;;;;;;;16.33;14.33;;;;;-1.85;89.25;99102.84;4956581;28;105666;-68
2023/02/04 07:53:56;;;;;;;;;21.67;15.00;;;;;-1.73;88.46;99126.78;4956613;28;102374;-68
2023/02/04 07:56:23;;;;;;;;;18.33;17.00;;;;;-1.76;88.74;99116.41;4955633;28;104257;-69
2023/02/04 07:58:50;;;;;;;;;17.67;14.33;;;;;-1.77;88.57;99120.00;4956891;28;102640;-68
2023/02/04 08:01:17;;;;;;;;;18.00;14.00;;;;;-1.76;89.01;99125.22;4954620;28;101958;-68
2023/02/04 08:03:44;;;;;;;;;14.33;12.00;;;;;-1.80;86.00;99129.84;4955056;28;102012;-70
2023/02/04 08:06:12;;;;;;;;;11.00;5.67;;;;;-1.79;87.59;99159.88;4954657;28;104050;-68
2023/02/04 08:08:39;;;;;;;;;15.00;14.33;;;;;-1.82;87.22;99166.25;4958917;28;102331;-68
2023/02/04 08:11:06;;;;;;;;;14.33;13.00;;;;;-1.80;89.16;99168.75;4954028;28;102089;-68
2023/02/04 08:13:33;;;;;;;;;15.33;13.00;;;;;-1.82;89.20;99176.00;4956553;28;103335;-68
2023/02/04 08:15:59;;;;;;;;;15.33;9.33;;;;;-1.87;89.04;99186.91;4952481;28;104175;-68
2023/02/04 08:18:27;;;;;;;;;16.33;12.67;;;;;-1.85;86.74;99187.63;4956203;28;102298;-69
2023/02/04 08:20:54;;;;;;;;;12.67;10.67;;;;;-1.76;88.00;99195.91;4955340;28;102353;-69
2023/02/04 08:23:21;;;;;;;;;13.67;11.67;;;;;-1.70;87.23;99206.91;4954972;28;102934;-69
2023/02/04 08:25:48;;;;;;;;;14.00;11.00;;;;;-1.67;83.76;99221.78;4961351;28;103969;-67
2023/02/04 08:28:15;;;;;;;;;18.67;10.00;;;;;-1.65;83.46;99214.53;4947605;28;102272;-68
2023/02/04 08:30:43;;;;;;;;;12.33;8.67;;;;;-1.58;84.29;99232.56;4952255;28;102320;-68
2023/02/04 08:33:10;;;;;;;;;8.67;7.67;;;;;-1.60;82.85;99247.72;4956130;28;102364;-69
2023/02/04 08:35:37;;;;;;;;;14.33;11.33;;;;;-1.56;84.60;99243.03;4953711;28;104074;-67
2023/02/04 08:38:04;;;;;;;;;12.00;11.00;;;;;-1.45;84.14;99259.06;4953246;28;102313;-68
2023/02/04 08:40:32;;;;;;;;;12.67;12.00;;;;;-1.35;83.63;99249.44;4956304;28;102128;-69
2023/02/04 08:42:59;;;;;;;;;15.00;11.33;;;;;-1.33;84.21;99257.31;4957473;28;102321;-68
2023/02/04 08:45:26;;;;;;;;;19.67;16.00;;;;;-1.31;84.16;99266.88;4956227;28;104060;-68
2023/02/04 08:47:53;;;;;;;;;16.67;13.67;;;;;-1.42;82.46;99277.38;4956533;28;102285;-69
2023/02/04 08:50:20;;;;;;;;;21.00;14.33;;;;;-1.40;83.87;99283.44;4955471;28;102083;-68
2023/02/04 08:52:47;;;;;;;;;19.33;14.67;;;;;-1.37;82.97;99285.88;4957492;28;103167;-68
2023/02/04 08:55:14;;;;;;;;;15.00;14.00;;;;;-1.31;82.92;99288.09;4956210;28;104069;-69
2023/02/04 08:57:41;;;;;;;;;11.00;10.00;;;;;-1.20;83.54;99282.00;4954074;28;102138;-69
2023/02/04 09:00:12;;;;;;;;;14.33;12.00;;;;;-1.18;82.92;99296.00;4953155;28;102834;-67
2023/02/04 09:02:39;;;;;;;;;19.67;14.00;;;;;-1.03;82.90;99309.00;4955263;28;102607;-68
2023/02/04 09:05:06;;;;;;;;;18.67;13.33;;;;;-1.21;82.23;99314.78;4952103;28;104273;-68
2023/02/04 09:07:33;;;;;;;;;14.67;11.00;;;;;-1.18;81.57;99327.84;4952954;28;102153;-68
2023/02/04 09:10:00;;;;;;;;;14.33;13.33;;;;;-1.20;81.45;99337.72;4959205;28;102048;-69
2023/02/04 09:12:27;;;;;;;;;15.00;14.00;;;;;-1.12;83.20;99330.91;4958236;28;102000;-70
2023/02/04 09:14:54;;;;;;;;;15.00;12.00;;;;;-1.15;80.69;99325.81;4955043;28;104073;-69
2023/02/04 09:17:21;;;;;;;;;21.67;18.00;;;;;-1.04;81.38;99336.53;4954777;28;102036;-69
2023/02/04 09:19:48;;;;;;;;;16.67;15.00;;;;;-1.12;80.46;99341.50;4955344;28;103280;-69
2023/02/04 09:22:15;;;;;;;;;14.67;12.67;;;;;-0.90;81.44;99346.13;4963208;28;103092;-69
2023/02/04 09:24:42;;;;;;;;;22.33;18.67;;;;;-0.94;80.34;99350.81;4955230;28;103205;-69
2023/02/04 09:27:09;;;;;;;;;18.00;16.00;;;;;-1.01;80.25;99354.88;4953633;28;102389;-67
2023/02/04 09:29:36;;;;;;;;;22.33;15.00;;;;;-0.98;81.80;99364.41;4960340;27;103824;-69
2023/02/04 09:32:03;;;;;;;;;20.33;16.67;;;;;-0.98;82.84;99378.53;4954516;28;102283;-70
2023/02/04 09:34:30;;;;;;;;;19.33;15.67;;;;;-0.92;82.51;99388.72;4957505;28;104120;-69
2023/02/04 09:36:57;;;;;;;;;20.33;17.33;;;;;-0.92;81.82;99380.75;4951241;28;102619;-70
2023/02/04 09:39:24;;;;;;;;;18.67;16.00;;;;;-0.91;82.26;99386.91;4948339;28;102070;-69
2023/02/04 09:41:54;;;;;;;;;21.33;16.33;;;;;-1.05;80.81;99390.53;4953684;28;102312;-69
2023/02/04 09:44:25;;;;;;;;;21.67;19.00;;;;;-0.98;82.40;99405.06;4951229;28;104207;-69
2023/02/04 09:46:55;;;;;;;;;21.33;17.67;;;;;-1.12;82.67;99402.53;4958790;28;102142;-68
2023/02/04 09:49:23;;;;;;;;;18.00;16.67;;;;;-1.00;82.20;99404.34;4954724;28;101999;-69
2023/02/04 09:51:51;;;;;;;;;18.33;16.67;;;;;-0.93;82.68;99410.03;4955123;28;102288;-70
2023/02/04 09:54:20;;;;;;;;;23.00;20.33;;;;;-1.16;83.19;99424.94;4952083;28;104091;-69
2023/02/04 09:56:49;;;;;;;;;19.00;16.33;;;;;-1.29;82.45;99436.50;4952118;28;102698;-69
2023/02/04 09:59:19;;;;;;;;;22.00;16.00;;;;;-1.39;81.59;99436.28;4952188;28;102209;-70
2023/02/04 10:01:54;;;;;;;;;18.00;15.67;;;;;-1.30;82.20;99438.31;4952085;28;103258;-69
2023/02/04 10:04:22;;;;;;;;;26.67;17.33;;;;;-1.04;82.01;99441.81;4951689;28;104030;-69
2023/02/04 10:06:49;;;;;;;;;17.67;13.33;;;;;-1.01;79.99;99446.91;4952815;28;102193;-69
2023/02/04 10:09:17;;;;;;;;;19.00;15.00;;;;;-1.08;77.72;99435.84;4952496;28;103712;-70
2023/02/04 10:11:47;;;;;;;;;15.67;12.00;;;;;-0.81;78.44;99434.88;4956552;28;102333;-70
2023/02/04 10:14:18;;;;;;;;;14.67;10.33;;;;;-0.63;77.82;99438.88;4953150;28;108583;-69
2023/02/04 10:16:57;;;;;;;;;20.67;16.00;;;;;-0.65;75.12;99424.84;4949018;28;103214;-71
2023/02/04 10:19:29;;;;;;;;;18.00;15.67;;;;;-0.71;77.94;99436.75;4950274;28;102090;-72
2023/02/04 10:21:57;;;;;;;;;18.33;13.33;;;;;-1.07;79.09;99429.59;4950628;28;102153;-69
2023/02/04 10:24:26;;;;;;;;;11.67;11.00;;;;;-1.31;77.73;99426.03;4952057;28;103811;-69
2023/02/04 10:26:54;;;;;;;;;13.00;11.00;;;;;-1.29;75.07;99450.63;4950585;28;103504;-69
2023/02/04 10:29:25;;;;;;;;;11.00;9.00;;;;;-1.27;77.30;99451.38;4946174;28;103635;-71
2023/02/04 10:31:52;;;;;;;;;11.33;10.33;;;;;-0.94;75.67;99449.00;4953971;28;102154;-70
2023/02/04 10:34:38;;;;;;;;;14.67;12.67;;;;;-0.68;76.09;99446.31;4949842;28;104202;-70
2023/02/04 10:37:19;;;;;;;;;16.67;14.67;;;;;-0.31;75.60;99449.81;4949840;28;102278;-71
2023/02/04 10:39:48;;;;;;;;;14.33;10.33;;;;;-0.33;70.27;99441.97;4947162;28;102947;-70
2023/02/04 10:42:26;;;;;;;;;11.33;11.00;;;;;-0.58;74.10;99448.19;4951020;28;102279;-71
2023/02/04 10:44:53;;;;;;;;;13.00;12.33;;;;;-0.64;75.41;99463.72;4947447;28;104272;-70
2023/02/04 10:47:27;;;;;;;;;14.00;13.33;;;;;-0.74;76.68;99462.69;4946357;28;103034;-70
2023/02/04 10:50:07;;;;;;;;;11.67;11.00;;;;;-1.06;77.17;99479.06;4957044;28;102129;-70
2023/02/04 10:52:40;;;;;;;;;11.00;9.00;;;;;-1.08;76.46;99475.66;4954016;28;103172;-70
2023/02/04 10:55:14;;;;;;;;;9.00;9.00;;;;;-0.95;75.67;99487.16;4932059;28;104149;-69
2023/02/04 10:57:44;;;;;;;;;11.67;10.33;;;;;-1.20;73.90;99500.41;4950893;28;102081;-71
2023/02/04 11:00:20;;;;;;;;;12.67;8.00;;;;;-1.07;75.15;99498.59;4953198;28;102146;-70
2023/02/04 11:02:57;;;;;;;;;16.33;8.67;;;;;-0.98;72.45;99497.09;4952942;28;102590;-71
2023/02/04 11:05:30;;;;;;;;;11.00;9.00;;;;;-0.88;72.86;99507.94;4949606;28;104237;-74
2023/02/04 11:07:57;;;;;;;;;9.00;8.00;;;;;-1.04;70.91;99514.31;4951550;28;102437;-71
2023/02/04 11:10:30;;;;;;;;;8.00;6.00;;;;;-0.94;72.43;99504.75;4952823;28;102310;-71
2023/02/04 11:12:59;;;;;;;;;7.33;7.33;;;;;-0.92;69.82;99509.97;4953979;28;102050;-71
2023/02/04 11:15:46;;;;;;;;;8.00;8.00;;;;;-0.97;71.67;99510.28;4950458;28;104757;-71
2023/02/04 11:18:19;;;;;;;;;8.00;7.00;;;;;-0.79;71.33;99509.94;4947120;28;102188;-73
2023/02/04 11:20:52;;;;;;;;;8.00;8.00;;;;;-1.07;71.80;99501.25;4950482;28;102138;-71
2023/02/04 11:23:25;;;;;;;;;15.33;9.00;;;;;-0.96;73.07;99517.28;4946743;28;102418;-72